sensor_id;sensor_type;location;lat;lon;timestamp;temperature;humidity
46882;DHT22;44112;38.408;-122.974;2022-07-29T00:01:31;24.90;52.30
46882;DHT22;44112;38.408;-122.974;2022-07-29T00:03:58;24.90;51.90
46882;DHT22;44112;38.408;-122.974;2022-07-29T00:06:25;24.90;51.90
46882;DHT22;44112;38.408;-122.974;2022-07-29T00:08:51;24.90;51.80
46882;DHT22;44112;38.408;-122.974;2022-07-29T00:11:18;24.90;51.90
46882;DHT22;44112;38.408;-122.974;2022-07-29T00:13:45;24.80;51.90
46882;DHT22;44112;38.408;-122.974;2022-07-29T00:16:11;24.80;52.00
46882;DHT22;44112;38.408;-122.974;2022-07-29T00:18:39;24.80;52.00
46882;DHT22;44112;38.408;-122.974;2022-07-29T00:21:05;24.80;52.00
46882;DHT22;44112;38.408;-122.974;2022-07-29T00:23:32;24.80;52.00
46882;DHT22;44112;38.408;-122.974;2022-07-29T00:25:59;24.80;52.00
46882;DHT22;44112;38.408;-122.974;2022-07-29T00:28:27;24.80;51.90
46882;DHT22;44112;38.408;-122.974;2022-07-29T00:30:53;24.80;51.80
46882;DHT22;44112;38.408;-122.974;2022-07-29T00:33:20;24.80;51.80
46882;DHT22;44112;38.408;-122.974;2022-07-29T00:35:47;24.80;51.90
46882;DHT22;44112;38.408;-122.974;2022-07-29T00:38:16;24.80;51.90
46882;DHT22;44112;38.408;-122.974;2022-07-29T00:40:43;24.80;51.80
46882;DHT22;44112;38.408;-122.974;2022-07-29T00:43:12;24.80;51.90
46882;DHT22;44112;38.408;-122.974;2022-07-29T00:45:43;24.70;52.00
46882;DHT22;44112;38.408;-122.974;2022-07-29T00:48:09;24.70;52.00
46882;DHT22;44112;38.408;-122.974;2022-07-29T00:50:36;24.70;52.10
46882;DHT22;44112;38.408;-122.974;2022-07-29T00:53:05;24.70;52.00
46882;DHT22;44112;38.408;-122.974;2022-07-29T00:55:32;24.70;52.00
46882;DHT22;44112;38.408;-122.974;2022-07-29T00:58:00;24.70;52.20
46882;DHT22;44112;38.408;-122.974;2022-07-29T01:00:28;24.70;52.40
46882;DHT22;44112;38.408;-122.974;2022-07-29T01:02:55;24.70;52.70
46882;DHT22;44112;38.408;-122.974;2022-07-29T01:05:24;24.70;52.30
46882;DHT22;44112;38.408;-122.974;2022-07-29T01:07:55;24.80;52.30
46882;DHT22;44112;38.408;-122.974;2022-07-29T01:10:23;24.80;52.40
46882;DHT22;44112;38.408;-122.974;2022-07-29T01:12:52;24.70;52.40
46882;DHT22;44112;38.408;-122.974;2022-07-29T01:15:20;24.70;52.20
46882;DHT22;44112;38.408;-122.974;2022-07-29T01:20:47;24.70;52.10
46882;DHT22;44112;38.408;-122.974;2022-07-29T01:23:38;24.70;52.30
46882;DHT22;44112;38.408;-122.974;2022-07-29T01:26:49;24.70;51.90
46882;DHT22;44112;38.408;-122.974;2022-07-29T01:29:43;24.60;51.90
46882;DHT22;44112;38.408;-122.974;2022-07-29T01:34:53;24.50;52.30
46882;DHT22;44112;38.408;-122.974;2022-07-29T01:37:28;24.50;52.20
46882;DHT22;44112;38.408;-122.974;2022-07-29T01:39:57;24.60;52.30
46882;DHT22;44112;38.408;-122.974;2022-07-29T01:42:54;24.40;52.10
46882;DHT22;44112;38.408;-122.974;2022-07-29T01:45:40;24.50;52.30
46882;DHT22;44112;38.408;-122.974;2022-07-29T01:48:26;24.40;52.40
46882;DHT22;44112;38.408;-122.974;2022-07-29T01:51:51;24.40;52.20
46882;DHT22;44112;38.408;-122.974;2022-07-29T01:54:04;24.30;52.40
46882;DHT22;44112;38.408;-122.974;2022-07-29T01:56:32;24.30;52.80
46882;DHT22;44112;38.408;-122.974;2022-07-29T01:59:03;24.30;52.30
46882;DHT22;44112;38.408;-122.974;2022-07-29T02:01:32;24.30;52.30
46882;DHT22;44112;38.408;-122.974;2022-07-29T02:04:02;24.30;52.40
46882;DHT22;44112;38.408;-122.974;2022-07-29T02:06:33;24.30;52.30
46882;DHT22;44112;38.408;-122.974;2022-07-29T02:09:00;24.20;51.90
46882;DHT22;44112;38.408;-122.974;2022-07-29T02:11:30;24.30;52.10
46882;DHT22;44112;38.408;-122.974;2022-07-29T02:13:59;24.20;52.00
46882;DHT22;44112;38.408;-122.974;2022-07-29T02:16:28;24.20;52.00
46882;DHT22;44112;38.408;-122.974;2022-07-29T02:18:58;24.10;52.00
46882;DHT22;44112;38.408;-122.974;2022-07-29T02:21:28;24.10;52.10
46882;DHT22;44112;38.408;-122.974;2022-07-29T02:24:00;24.10;52.20
46882;DHT22;44112;38.408;-122.974;2022-07-29T02:26:28;24.00;52.20
46882;DHT22;44112;38.408;-122.974;2022-07-29T02:28:57;23.90;52.40
46882;DHT22;44112;38.408;-122.974;2022-07-29T02:31:26;23.80;52.60
46882;DHT22;44112;38.408;-122.974;2022-07-29T02:33:55;23.60;52.80
46882;DHT22;44112;38.408;-122.974;2022-07-29T02:36:23;23.50;53.00
46882;DHT22;44112;38.408;-122.974;2022-07-29T02:38:51;23.50;53.10
46882;DHT22;44112;38.408;-122.974;2022-07-29T02:41:24;23.40;53.30
46882;DHT22;44112;38.408;-122.974;2022-07-29T02:44:04;23.40;53.50
46882;DHT22;44112;38.408;-122.974;2022-07-29T02:46:33;23.20;53.60
46882;DHT22;44112;38.408;-122.974;2022-07-29T02:49:09;23.10;53.60
46882;DHT22;44112;38.408;-122.974;2022-07-29T02:51:49;23.00;54.00
46882;DHT22;44112;38.408;-122.974;2022-07-29T02:54:41;22.90;54.40
46882;DHT22;44112;38.408;-122.974;2022-07-29T02:57:22;22.80;54.70
46882;DHT22;44112;38.408;-122.974;2022-07-29T02:59:51;22.80;55.20
46882;DHT22;44112;38.408;-122.974;2022-07-29T03:02:19;22.70;55.70
46882;DHT22;44112;38.408;-122.974;2022-07-29T03:04:48;22.50;55.80
46882;DHT22;44112;38.408;-122.974;2022-07-29T03:07:18;22.40;56.00
46882;DHT22;44112;38.408;-122.974;2022-07-29T03:09:47;22.30;56.40
46882;DHT22;44112;38.408;-122.974;2022-07-29T03:12:14;22.30;56.20
46882;DHT22;44112;38.408;-122.974;2022-07-29T03:14:43;22.20;56.40
46882;DHT22;44112;38.408;-122.974;2022-07-29T03:17:12;22.20;56.30
46882;DHT22;44112;38.408;-122.974;2022-07-29T03:19:40;22.40;55.70
46882;DHT22;44112;38.408;-122.974;2022-07-29T03:22:07;22.60;55.10
46882;DHT22;44112;38.408;-122.974;2022-07-29T03:24:35;22.80;54.80
46882;DHT22;44112;38.408;-122.974;2022-07-29T03:27:03;22.80;54.30
46882;DHT22;44112;38.408;-122.974;2022-07-29T03:29:32;23.00;54.30
46882;DHT22;44112;38.408;-122.974;2022-07-29T03:31:58;23.00;53.80
46882;DHT22;44112;38.408;-122.974;2022-07-29T03:34:25;23.10;53.80
46882;DHT22;44112;38.408;-122.974;2022-07-29T03:36:51;23.10;54.00
46882;DHT22;44112;38.408;-122.974;2022-07-29T03:39:23;23.10;54.00
46882;DHT22;44112;38.408;-122.974;2022-07-29T03:41:55;23.10;54.70
46882;DHT22;44112;38.408;-122.974;2022-07-29T03:44:23;23.00;54.20
46882;DHT22;44112;38.408;-122.974;2022-07-29T03:46:51;23.00;55.10
46882;DHT22;44112;38.408;-122.974;2022-07-29T03:49:19;23.10;54.70
46882;DHT22;44112;38.408;-122.974;2022-07-29T03:51:46;23.00;54.60
46882;DHT22;44112;38.408;-122.974;2022-07-29T03:54:13;23.00;54.20
46882;DHT22;44112;38.408;-122.974;2022-07-29T03:56:45;23.00;54.60
46882;DHT22;44112;38.408;-122.974;2022-07-29T03:59:15;23.00;54.60
46882;DHT22;44112;38.408;-122.974;2022-07-29T04:01:43;23.10;54.40
46882;DHT22;44112;38.408;-122.974;2022-07-29T04:04:10;23.10;54.60
46882;DHT22;44112;38.408;-122.974;2022-07-29T04:06:42;23.10;54.50
46882;DHT22;44112;38.408;-122.974;2022-07-29T04:09:10;23.00;54.40
46882;DHT22;44112;38.408;-122.974;2022-07-29T04:11:40;23.00;54.50
46882;DHT22;44112;38.408;-122.974;2022-07-29T04:14:08;23.00;54.50
46882;DHT22;44112;38.408;-122.974;2022-07-29T04:16:34;23.00;54.60
46882;DHT22;44112;38.408;-122.974;2022-07-29T04:19:01;23.10;54.40
46882;DHT22;44112;38.408;-122.974;2022-07-29T04:21:28;23.10;54.50
46882;DHT22;44112;38.408;-122.974;2022-07-29T04:23:55;23.10;54.30
46882;DHT22;44112;38.408;-122.974;2022-07-29T04:26:21;23.10;54.50
46882;DHT22;44112;38.408;-122.974;2022-07-29T04:28:49;23.10;54.50
46882;DHT22;44112;38.408;-122.974;2022-07-29T04:31:16;23.10;54.80
46882;DHT22;44112;38.408;-122.974;2022-07-29T04:33:43;23.10;54.40
46882;DHT22;44112;38.408;-122.974;2022-07-29T04:36:10;23.10;54.40
46882;DHT22;44112;38.408;-122.974;2022-07-29T04:38:37;23.10;54.60
46882;DHT22;44112;38.408;-122.974;2022-07-29T04:41:04;23.10;54.40
46882;DHT22;44112;38.408;-122.974;2022-07-29T04:43:33;23.10;54.30
46882;DHT22;44112;38.408;-122.974;2022-07-29T04:46:00;23.10;54.30
46882;DHT22;44112;38.408;-122.974;2022-07-29T04:48:27;23.10;54.30
46882;DHT22;44112;38.408;-122.974;2022-07-29T04:50:54;23.10;54.30
46882;DHT22;44112;38.408;-122.974;2022-07-29T04:53:20;23.00;54.30
46882;DHT22;44112;38.408;-122.974;2022-07-29T04:55:47;23.00;54.30
46882;DHT22;44112;38.408;-122.974;2022-07-29T04:58:14;23.00;54.40
46882;DHT22;44112;38.408;-122.974;2022-07-29T05:00:41;22.90;54.40
46882;DHT22;44112;38.408;-122.974;2022-07-29T05:03:08;23.00;54.50
46882;DHT22;44112;38.408;-122.974;2022-07-29T05:05:34;23.00;54.50
46882;DHT22;44112;38.408;-122.974;2022-07-29T05:08:01;23.00;54.50
46882;DHT22;44112;38.408;-122.974;2022-07-29T05:10:27;22.90;54.40
46882;DHT22;44112;38.408;-122.974;2022-07-29T05:12:54;23.00;54.40
46882;DHT22;44112;38.408;-122.974;2022-07-29T05:15:21;23.00;54.50
46882;DHT22;44112;38.408;-122.974;2022-07-29T05:17:47;22.90;54.40
46882;DHT22;44112;38.408;-122.974;2022-07-29T05:20:14;22.90;54.50
46882;DHT22;44112;38.408;-122.974;2022-07-29T05:22:41;22.90;54.50
46882;DHT22;44112;38.408;-122.974;2022-07-29T05:25:07;22.90;54.40
46882;DHT22;44112;38.408;-122.974;2022-07-29T05:27:35;22.90;54.40
46882;DHT22;44112;38.408;-122.974;2022-07-29T05:30:03;22.90;54.50
46882;DHT22;44112;38.408;-122.974;2022-07-29T05:32:30;22.90;54.50
46882;DHT22;44112;38.408;-122.974;2022-07-29T05:34:56;22.90;54.50
46882;DHT22;44112;38.408;-122.974;2022-07-29T05:37:23;22.90;54.50
46882;DHT22;44112;38.408;-122.974;2022-07-29T05:39:50;22.90;54.50
46882;DHT22;44112;38.408;-122.974;2022-07-29T05:42:17;22.90;54.60
46882;DHT22;44112;38.408;-122.974;2022-07-29T05:44:44;22.80;54.50
46882;DHT22;44112;38.408;-122.974;2022-07-29T05:47:10;22.90;54.50
46882;DHT22;44112;38.408;-122.974;2022-07-29T05:49:37;22.80;54.50
46882;DHT22;44112;38.408;-122.974;2022-07-29T05:52:04;22.90;54.50
46882;DHT22;44112;38.408;-122.974;2022-07-29T05:54:31;22.80;54.50
46882;DHT22;44112;38.408;-122.974;2022-07-29T05:56:58;22.80;54.50
46882;DHT22;44112;38.408;-122.974;2022-07-29T05:59:25;22.80;54.40
46882;DHT22;44112;38.408;-122.974;2022-07-29T06:01:52;22.80;54.50
46882;DHT22;44112;38.408;-122.974;2022-07-29T06:04:19;22.80;54.40
46882;DHT22;44112;38.408;-122.974;2022-07-29T06:06:46;22.80;54.50
46882;DHT22;44112;38.408;-122.974;2022-07-29T06:09:13;22.70;54.50
46882;DHT22;44112;38.408;-122.974;2022-07-29T06:11:40;22.80;54.50
46882;DHT22;44112;38.408;-122.974;2022-07-29T06:14:07;22.70;54.40
46882;DHT22;44112;38.408;-122.974;2022-07-29T06:16:34;22.70;54.50
46882;DHT22;44112;38.408;-122.974;2022-07-29T06:19:00;22.70;54.50
46882;DHT22;44112;38.408;-122.974;2022-07-29T06:21:27;22.70;54.40
46882;DHT22;44112;38.408;-122.974;2022-07-29T06:23:54;22.70;54.40
46882;DHT22;44112;38.408;-122.974;2022-07-29T06:26:20;22.70;54.40
46882;DHT22;44112;38.408;-122.974;2022-07-29T06:28:48;22.70;54.40
46882;DHT22;44112;38.408;-122.974;2022-07-29T06:31:15;22.60;55.00
46882;DHT22;44112;38.408;-122.974;2022-07-29T06:33:42;22.70;54.40
46882;DHT22;44112;38.408;-122.974;2022-07-29T06:36:09;22.70;54.40
46882;DHT22;44112;38.408;-122.974;2022-07-29T06:38:36;22.70;54.40
46882;DHT22;44112;38.408;-122.974;2022-07-29T06:41:04;22.60;54.50
46882;DHT22;44112;38.408;-122.974;2022-07-29T06:43:35;22.60;54.50
46882;DHT22;44112;38.408;-122.974;2022-07-29T06:46:05;22.60;54.40
46882;DHT22;44112;38.408;-122.974;2022-07-29T06:48:33;22.60;54.50
46882;DHT22;44112;38.408;-122.974;2022-07-29T06:51:00;22.60;54.50
46882;DHT22;44112;38.408;-122.974;2022-07-29T06:53:27;22.60;54.50
46882;DHT22;44112;38.408;-122.974;2022-07-29T06:55:54;22.60;54.40
46882;DHT22;44112;38.408;-122.974;2022-07-29T06:58:21;22.60;54.50
46882;DHT22;44112;38.408;-122.974;2022-07-29T07:00:48;22.60;54.40
46882;DHT22;44112;38.408;-122.974;2022-07-29T07:03:17;22.60;54.40
46882;DHT22;44112;38.408;-122.974;2022-07-29T07:05:44;22.50;54.40
46882;DHT22;44112;38.408;-122.974;2022-07-29T07:08:11;22.50;54.40
46882;DHT22;44112;38.408;-122.974;2022-07-29T07:10:38;22.50;54.40
46882;DHT22;44112;38.408;-122.974;2022-07-29T07:13:05;22.50;54.50
46882;DHT22;44112;38.408;-122.974;2022-07-29T07:15:32;22.50;54.50
46882;DHT22;44112;38.408;-122.974;2022-07-29T07:17:59;22.50;54.50
46882;DHT22;44112;38.408;-122.974;2022-07-29T07:20:26;22.50;54.60
46882;DHT22;44112;38.408;-122.974;2022-07-29T07:22:53;22.50;54.60
46882;DHT22;44112;38.408;-122.974;2022-07-29T07:25:20;22.50;54.50
46882;DHT22;44112;38.408;-122.974;2022-07-29T07:27:48;22.40;54.60
46882;DHT22;44112;38.408;-122.974;2022-07-29T07:30:16;22.40;54.50
46882;DHT22;44112;38.408;-122.974;2022-07-29T07:32:43;22.40;54.50
46882;DHT22;44112;38.408;-122.974;2022-07-29T07:35:10;22.40;54.50
46882;DHT22;44112;38.408;-122.974;2022-07-29T07:37:38;22.40;54.50
46882;DHT22;44112;38.408;-122.974;2022-07-29T07:40:08;22.40;55.10
46882;DHT22;44112;38.408;-122.974;2022-07-29T07:42:35;22.40;54.50
46882;DHT22;44112;38.408;-122.974;2022-07-29T07:45:02;22.30;54.40
46882;DHT22;44112;38.408;-122.974;2022-07-29T07:47:29;22.40;54.50
46882;DHT22;44112;38.408;-122.974;2022-07-29T07:49:56;22.30;54.30
46882;DHT22;44112;38.408;-122.974;2022-07-29T07:52:22;22.30;54.40
46882;DHT22;44112;38.408;-122.974;2022-07-29T07:54:49;22.30;54.30
46882;DHT22;44112;38.408;-122.974;2022-07-29T07:57:17;22.30;54.30
46882;DHT22;44112;38.408;-122.974;2022-07-29T07:59:43;22.30;54.30
46882;DHT22;44112;38.408;-122.974;2022-07-29T08:02:11;22.30;54.30
46882;DHT22;44112;38.408;-122.974;2022-07-29T08:04:40;22.30;54.20
46882;DHT22;44112;38.408;-122.974;2022-07-29T08:07:07;22.30;54.20
46882;DHT22;44112;38.408;-122.974;2022-07-29T08:09:35;22.30;54.30
46882;DHT22;44112;38.408;-122.974;2022-07-29T08:12:02;22.20;54.30
46882;DHT22;44112;38.408;-122.974;2022-07-29T08:14:31;22.20;54.30
46882;DHT22;44112;38.408;-122.974;2022-07-29T08:16:57;22.20;54.20
46882;DHT22;44112;38.408;-122.974;2022-07-29T08:19:25;22.20;54.30
46882;DHT22;44112;38.408;-122.974;2022-07-29T08:21:51;22.20;54.80
46882;DHT22;44112;38.408;-122.974;2022-07-29T08:24:20;22.20;54.20
46882;DHT22;44112;38.408;-122.974;2022-07-29T08:27:05;22.20;54.20
46882;DHT22;44112;38.408;-122.974;2022-07-29T08:29:31;22.20;54.30
46882;DHT22;44112;38.408;-122.974;2022-07-29T08:31:58;22.10;54.30
46882;DHT22;44112;38.408;-122.974;2022-07-29T08:34:25;22.10;54.30
46882;DHT22;44112;38.408;-122.974;2022-07-29T08:36:52;22.10;54.30
46882;DHT22;44112;38.408;-122.974;2022-07-29T08:39:19;22.10;54.30
46882;DHT22;44112;38.408;-122.974;2022-07-29T08:41:46;22.10;54.40
46882;DHT22;44112;38.408;-122.974;2022-07-29T08:44:15;22.10;54.30
46882;DHT22;44112;38.408;-122.974;2022-07-29T08:46:43;22.10;54.30
46882;DHT22;44112;38.408;-122.974;2022-07-29T08:49:09;22.10;54.30
46882;DHT22;44112;38.408;-122.974;2022-07-29T08:51:38;22.10;54.30
46882;DHT22;44112;38.408;-122.974;2022-07-29T08:54:05;22.10;54.30
46882;DHT22;44112;38.408;-122.974;2022-07-29T08:56:32;22.10;54.30
46882;DHT22;44112;38.408;-122.974;2022-07-29T08:59:05;22.00;54.40
46882;DHT22;44112;38.408;-122.974;2022-07-29T09:01:36;22.00;54.40
46882;DHT22;44112;38.408;-122.974;2022-07-29T09:04:08;22.00;54.50
46882;DHT22;44112;38.408;-122.974;2022-07-29T09:06:39;22.00;55.00
46882;DHT22;44112;38.408;-122.974;2022-07-29T09:09:08;22.00;54.50
46882;DHT22;44112;38.408;-122.974;2022-07-29T09:11:35;22.00;54.60
46882;DHT22;44112;38.408;-122.974;2022-07-29T09:14:02;22.00;54.60
46882;DHT22;44112;38.408;-122.974;2022-07-29T09:16:50;21.90;54.50
46882;DHT22;44112;38.408;-122.974;2022-07-29T09:19:24;21.90;54.60
46882;DHT22;44112;38.408;-122.974;2022-07-29T09:21:51;22.00;54.60
46882;DHT22;44112;38.408;-122.974;2022-07-29T09:26:54;21.90;54.40
46882;DHT22;44112;38.408;-122.974;2022-07-29T09:29:23;21.90;54.50
46882;DHT22;44112;38.408;-122.974;2022-07-29T09:31:54;21.80;54.40
46882;DHT22;44112;38.408;-122.974;2022-07-29T09:34:26;21.80;54.40
46882;DHT22;44112;38.408;-122.974;2022-07-29T09:36:55;21.80;54.50
46882;DHT22;44112;38.408;-122.974;2022-07-29T09:42:00;21.70;54.70
46882;DHT22;44112;38.408;-122.974;2022-07-29T09:44:44;21.60;54.70
46882;DHT22;44112;38.408;-122.974;2022-07-29T09:47:11;21.70;54.60
46882;DHT22;44112;38.408;-122.974;2022-07-29T09:49:56;21.70;54.60
46882;DHT22;44112;38.408;-122.974;2022-07-29T09:52:30;21.70;54.60
46882;DHT22;44112;38.408;-122.974;2022-07-29T09:55:10;21.60;54.80
46882;DHT22;44112;38.408;-122.974;2022-07-29T09:57:37;21.60;54.40
46882;DHT22;44112;38.408;-122.974;2022-07-29T10:00:07;21.60;54.50
46882;DHT22;44112;38.408;-122.974;2022-07-29T10:02:36;21.50;54.40
46882;DHT22;44112;38.408;-122.974;2022-07-29T10:05:05;21.60;54.60
46882;DHT22;44112;38.408;-122.974;2022-07-29T10:07:50;21.50;54.60
46882;DHT22;44112;38.408;-122.974;2022-07-29T10:12:58;21.40;54.80
46882;DHT22;44112;38.408;-122.974;2022-07-29T10:15:27;21.40;54.80
46882;DHT22;44112;38.408;-122.974;2022-07-29T10:17:56;21.40;54.80
46882;DHT22;44112;38.408;-122.974;2022-07-29T10:20:25;21.40;54.80
46882;DHT22;44112;38.408;-122.974;2022-07-29T10:22:53;21.40;54.80
46882;DHT22;44112;38.408;-122.974;2022-07-29T10:25:20;21.40;54.70
46882;DHT22;44112;38.408;-122.974;2022-07-29T10:27:48;21.40;54.70
46882;DHT22;44112;38.408;-122.974;2022-07-29T10:30:18;21.30;54.70
46882;DHT22;44112;38.408;-122.974;2022-07-29T10:32:56;21.30;54.90
46882;DHT22;44112;38.408;-122.974;2022-07-29T10:38:41;21.20;54.90
46882;DHT22;44112;38.408;-122.974;2022-07-29T10:41:36;21.20;55.10
46882;DHT22;44112;38.408;-122.974;2022-07-29T10:44:09;21.20;55.10
46882;DHT22;44112;38.408;-122.974;2022-07-29T10:46:40;21.10;55.10
46882;DHT22;44112;38.408;-122.974;2022-07-29T10:49:18;21.10;55.20
46882;DHT22;44112;38.408;-122.974;2022-07-29T10:51:58;21.10;55.10
46882;DHT22;44112;38.408;-122.974;2022-07-29T10:54:47;21.10;55.10
46882;DHT22;44112;38.408;-122.974;2022-07-29T11:05:08;21.00;55.10
46882;DHT22;44112;38.408;-122.974;2022-07-29T11:07:37;21.00;55.10
46882;DHT22;44112;38.408;-122.974;2022-07-29T11:15:10;20.90;55.40
46882;DHT22;44112;38.408;-122.974;2022-07-29T11:20:42;20.90;55.60
46882;DHT22;44112;38.408;-122.974;2022-07-29T11:26:15;20.80;55.30
46882;DHT22;44112;38.408;-122.974;2022-07-29T11:29:03;20.80;55.30
46882;DHT22;44112;38.408;-122.974;2022-07-29T11:31:38;20.80;55.20
46882;DHT22;44112;38.408;-122.974;2022-07-29T11:34:25;20.80;55.80
46882;DHT22;44112;38.408;-122.974;2022-07-29T11:45:06;20.70;55.60
46882;DHT22;44112;38.408;-122.974;2022-07-29T11:47:37;20.70;55.60
46882;DHT22;44112;38.408;-122.974;2022-07-29T11:50:09;20.60;55.70
46882;DHT22;44112;38.408;-122.974;2022-07-29T11:52:39;20.60;55.80
46882;DHT22;44112;38.408;-122.974;2022-07-29T11:55:22;20.50;55.70
46882;DHT22;44112;38.408;-122.974;2022-07-29T11:57:52;20.60;55.70
46882;DHT22;44112;38.408;-122.974;2022-07-29T12:00:39;20.60;55.60
46882;DHT22;44112;38.408;-122.974;2022-07-29T12:03:10;20.60;55.50
46882;DHT22;44112;38.408;-122.974;2022-07-29T12:05:43;20.60;55.40
46882;DHT22;44112;38.408;-122.974;2022-07-29T12:08:19;20.60;55.50
46882;DHT22;44112;38.408;-122.974;2022-07-29T12:10:49;20.60;55.60
46882;DHT22;44112;38.408;-122.974;2022-07-29T12:13:18;20.50;55.60
46882;DHT22;44112;38.408;-122.974;2022-07-29T12:15:57;20.50;55.70
46882;DHT22;44112;38.408;-122.974;2022-07-29T12:18:24;20.40;56.10
46882;DHT22;44112;38.408;-122.974;2022-07-29T12:20:59;20.40;56.10
46882;DHT22;44112;38.408;-122.974;2022-07-29T12:23:25;20.30;55.90
46882;DHT22;44112;38.408;-122.974;2022-07-29T12:25:52;20.40;55.90
46882;DHT22;44112;38.408;-122.974;2022-07-29T12:28:18;20.40;55.90
46882;DHT22;44112;38.408;-122.974;2022-07-29T12:30:50;20.40;55.80
46882;DHT22;44112;38.408;-122.974;2022-07-29T12:33:27;20.40;55.70
46882;DHT22;44112;38.408;-122.974;2022-07-29T12:35:57;20.40;55.60
46882;DHT22;44112;38.408;-122.974;2022-07-29T12:38:24;20.40;55.70
46882;DHT22;44112;38.408;-122.974;2022-07-29T12:40:52;20.30;55.70
46882;DHT22;44112;38.408;-122.974;2022-07-29T12:43:24;20.30;55.80
46882;DHT22;44112;38.408;-122.974;2022-07-29T12:45:52;20.30;55.80
46882;DHT22;44112;38.408;-122.974;2022-07-29T12:48:41;20.30;55.90
46882;DHT22;44112;38.408;-122.974;2022-07-29T12:51:09;20.20;56.00
46882;DHT22;44112;38.408;-122.974;2022-07-29T12:53:40;20.20;56.90
46882;DHT22;44112;38.408;-122.974;2022-07-29T12:56:09;20.10;56.40
46882;DHT22;44112;38.408;-122.974;2022-07-29T12:58:42;20.20;56.30
46882;DHT22;44112;38.408;-122.974;2022-07-29T13:01:13;20.20;56.10
46882;DHT22;44112;38.408;-122.974;2022-07-29T13:03:48;20.20;55.90
46882;DHT22;44112;38.408;-122.974;2022-07-29T13:06:34;20.20;55.90
46882;DHT22;44112;38.408;-122.974;2022-07-29T13:09:13;20.20;55.80
46882;DHT22;44112;38.408;-122.974;2022-07-29T13:11:47;20.20;55.90
46882;DHT22;44112;38.408;-122.974;2022-07-29T13:14:34;20.20;56.00
46882;DHT22;44112;38.408;-122.974;2022-07-29T13:17:07;20.20;56.00
46882;DHT22;44112;38.408;-122.974;2022-07-29T13:19:48;20.20;56.10
46882;DHT22;44112;38.408;-122.974;2022-07-29T13:22:24;20.10;56.20
46882;DHT22;44112;38.408;-122.974;2022-07-29T13:27:21;20.00;56.70
46882;DHT22;44112;38.408;-122.974;2022-07-29T13:29:49;20.00;56.60
46882;DHT22;44112;38.408;-122.974;2022-07-29T13:32:19;20.00;56.60
46882;DHT22;44112;38.408;-122.974;2022-07-29T13:34:46;20.00;56.40
46882;DHT22;44112;38.408;-122.974;2022-07-29T13:37:13;20.00;56.30
46882;DHT22;44112;38.408;-122.974;2022-07-29T13:39:41;20.00;56.30
46882;DHT22;44112;38.408;-122.974;2022-07-29T13:42:07;20.00;56.30
46882;DHT22;44112;38.408;-122.974;2022-07-29T13:44:35;20.00;56.40
46882;DHT22;44112;38.408;-122.974;2022-07-29T13:47:01;20.00;56.60
46882;DHT22;44112;38.408;-122.974;2022-07-29T13:49:28;20.00;56.60
46882;DHT22;44112;38.408;-122.974;2022-07-29T13:51:56;19.90;56.70
46882;DHT22;44112;38.408;-122.974;2022-07-29T13:54:22;19.90;56.60
46882;DHT22;44112;38.408;-122.974;2022-07-29T13:56:50;19.90;56.70
46882;DHT22;44112;38.408;-122.974;2022-07-29T13:59:17;19.90;56.80
46882;DHT22;44112;38.408;-122.974;2022-07-29T14:01:44;19.90;56.80
46882;DHT22;44112;38.408;-122.974;2022-07-29T14:04:11;19.90;56.90
46882;DHT22;44112;38.408;-122.974;2022-07-29T14:06:37;19.90;56.80
46882;DHT22;44112;38.408;-122.974;2022-07-29T14:09:05;19.90;56.70
46882;DHT22;44112;38.408;-122.974;2022-07-29T14:11:35;20.00;56.70
46882;DHT22;44112;38.408;-122.974;2022-07-29T14:14:04;19.90;56.70
46882;DHT22;44112;38.408;-122.974;2022-07-29T14:16:30;19.90;56.70
46882;DHT22;44112;38.408;-122.974;2022-07-29T14:18:57;19.80;56.80
46882;DHT22;44112;38.408;-122.974;2022-07-29T14:21:25;19.80;57.00
46882;DHT22;44112;38.408;-122.974;2022-07-29T14:23:52;19.80;57.00
46882;DHT22;44112;38.408;-122.974;2022-07-29T14:26:21;19.80;57.10
46882;DHT22;44112;38.408;-122.974;2022-07-29T14:28:48;19.80;57.10
46882;DHT22;44112;38.408;-122.974;2022-07-29T14:31:15;19.70;57.20
46882;DHT22;44112;38.408;-122.974;2022-07-29T14:33:42;19.80;57.10
46882;DHT22;44112;38.408;-122.974;2022-07-29T14:36:10;19.80;57.10
46882;DHT22;44112;38.408;-122.974;2022-07-29T14:38:37;19.80;57.10
46882;DHT22;44112;38.408;-122.974;2022-07-29T14:41:06;19.80;57.00
46882;DHT22;44112;38.408;-122.974;2022-07-29T14:43:34;19.80;57.10
46882;DHT22;44112;38.408;-122.974;2022-07-29T14:46:01;19.70;57.10
46882;DHT22;44112;38.408;-122.974;2022-07-29T14:48:28;19.70;57.20
46882;DHT22;44112;38.408;-122.974;2022-07-29T14:50:55;19.70;57.30
46882;DHT22;44112;38.408;-122.974;2022-07-29T14:53:22;19.70;57.40
46882;DHT22;44112;38.408;-122.974;2022-07-29T14:55:49;19.70;57.50
46882;DHT22;44112;38.408;-122.974;2022-07-29T14:58:16;19.70;57.50
46882;DHT22;44112;38.408;-122.974;2022-07-29T15:00:42;19.60;57.60
46882;DHT22;44112;38.408;-122.974;2022-07-29T15:03:09;19.70;57.80
46882;DHT22;44112;38.408;-122.974;2022-07-29T15:05:37;19.70;57.70
46882;DHT22;44112;38.408;-122.974;2022-07-29T15:08:04;19.70;57.60
46882;DHT22;44112;38.408;-122.974;2022-07-29T15:10:31;19.70;57.70
46882;DHT22;44112;38.408;-122.974;2022-07-29T15:12:57;19.70;57.60
46882;DHT22;44112;38.408;-122.974;2022-07-29T15:15:24;19.70;57.60
46882;DHT22;44112;38.408;-122.974;2022-07-29T15:17:52;19.70;57.70
46882;DHT22;44112;38.408;-122.974;2022-07-29T15:20:18;19.70;57.70
46882;DHT22;44112;38.408;-122.974;2022-07-29T15:22:45;19.70;57.80
46882;DHT22;44112;38.408;-122.974;2022-07-29T15:25:11;19.60;57.90
46882;DHT22;44112;38.408;-122.974;2022-07-29T15:27:38;19.60;58.00
46882;DHT22;44112;38.408;-122.974;2022-07-29T15:30:05;19.60;58.00
46882;DHT22;44112;38.408;-122.974;2022-07-29T15:32:33;19.60;58.10
46882;DHT22;44112;38.408;-122.974;2022-07-29T15:35:00;19.50;58.10
46882;DHT22;44112;38.408;-122.974;2022-07-29T15:37:27;19.60;58.10
46882;DHT22;44112;38.408;-122.974;2022-07-29T15:39:54;19.60;58.10
46882;DHT22;44112;38.408;-122.974;2022-07-29T15:42:21;19.60;58.10
46882;DHT22;44112;38.408;-122.974;2022-07-29T15:44:48;19.60;58.00
46882;DHT22;44112;38.408;-122.974;2022-07-29T15:47:14;19.70;58.10
46882;DHT22;44112;38.408;-122.974;2022-07-29T15:49:42;19.60;58.00